createdAt,value
2019-03-13T00:01:52.139Z,6.60
2019-03-13T00:04:24.623Z,7.00
2019-03-13T00:06:58.196Z,7.20
2019-03-13T00:09:28.953Z,7.30
2019-03-13T00:12:00.789Z,7.80
2019-03-13T00:14:32.980Z,8.00
2019-03-13T00:17:04.845Z,8.30
2019-03-13T00:19:36.425Z,8.20
2019-03-13T00:22:10.955Z,8.40
2019-03-13T00:24:41.522Z,8.60
2019-03-13T00:27:11.858Z,8.80
2019-03-13T00:29:44.212Z,8.60
2019-03-13T00:32:14.546Z,8.90
2019-03-13T00:34:46.956Z,8.90
2019-03-13T00:37:17.794Z,8.80
2019-03-13T00:39:50.374Z,9.00
2019-03-13T00:42:20.770Z,9.30
2019-03-13T00:44:51.163Z,9.00
2019-03-13T00:47:24.343Z,9.20
2019-03-13T00:49:55.731Z,9.10
2019-03-13T00:52:28.246Z,9.30
2019-03-13T00:54:58.994Z,9.30
2019-03-13T00:57:31.444Z,9.50
2019-03-13T01:00:01.919Z,9.50
2019-03-13T01:02:45.098Z,9.30
2019-03-13T01:05:19.693Z,9.30
2019-03-13T01:07:50.137Z,9.60
2019-03-13T01:10:21.957Z,9.70
2019-03-13T01:12:52.650Z,9.60
2019-03-13T01:15:23.054Z,9.60
2019-03-13T01:17:55.224Z,9.60
2019-03-13T01:20:25.608Z,9.60
2019-03-13T01:22:56.337Z,9.70
2019-03-13T01:25:26.752Z,9.60
2019-03-13T01:27:57.537Z,9.90
2019-03-13T01:30:30.454Z,9.60
2019-03-13T01:33:08.825Z,9.60
2019-03-13T01:35:42.942Z,9.60
2019-03-13T01:38:14.248Z,9.60
2019-03-13T01:40:46.120Z,9.50
2019-03-13T01:43:18.339Z,9.60
2019-03-13T01:45:48.719Z,9.50
2019-03-13T01:48:19.333Z,9.60
2019-03-13T01:50:49.876Z,9.60
2019-03-13T01:53:22.047Z,9.40
2019-03-13T01:55:52.862Z,9.60
2019-03-13T01:58:23.495Z,9.60
2019-03-13T02:00:53.880Z,9.60
2019-03-13T02:03:25.366Z,9.50
2019-03-13T02:05:55.774Z,9.70
2019-03-13T02:08:28.405Z,9.20
2019-03-13T02:11:00.588Z,9.20
2019-03-13T02:13:36.037Z,9.20
2019-03-13T02:16:06.333Z,9.60
2019-03-13T02:18:39.612Z,9.30
2019-03-13T02:21:10.099Z,9.20
2019-03-13T02:23:41.166Z,9.00
2019-03-13T02:26:11.930Z,8.90
2019-03-13T02:28:42.647Z,8.90
2019-03-13T02:31:14.351Z,8.50
2019-03-13T02:33:45.957Z,8.30
2019-03-13T02:36:16.333Z,8.60
2019-03-13T02:38:46.820Z,8.30
2019-03-13T02:41:17.198Z,8.30
2019-03-13T02:43:49.125Z,8.20
2019-03-13T02:46:19.898Z,8.00
2019-03-13T02:48:50.275Z,8.20
2019-03-13T02:51:20.645Z,8.00
2019-03-13T02:53:51.092Z,7.70
2019-03-13T02:56:21.658Z,7.90
2019-03-13T02:58:53.175Z,7.70
2019-03-13T03:01:31.690Z,8.00
2019-03-13T03:04:04.315Z,7.60
2019-03-13T03:06:37.472Z,7.60
2019-03-13T03:09:09.143Z,7.50
2019-03-13T03:11:41.113Z,7.80
2019-03-13T03:14:11.593Z,7.90
2019-03-13T03:16:43.820Z,7.80
2019-03-13T03:19:14.196Z,7.80
2019-03-13T03:21:45.464Z,7.30
2019-03-13T03:24:15.891Z,7.30
2019-03-13T03:26:48.246Z,7.20
2019-03-13T03:29:18.962Z,7.60
2019-03-13T03:31:49.479Z,7.50
2019-03-13T03:34:20.981Z,7.30
2019-03-13T03:36:52.966Z,7.20
2019-03-13T03:39:23.362Z,7.00
2019-03-13T03:41:53.755Z,7.00
2019-03-13T03:44:24.479Z,6.80
2019-03-13T03:46:56.660Z,6.90
2019-03-13T03:49:28.141Z,6.90
2019-03-13T03:51:58.493Z,6.90
2019-03-13T03:54:29.669Z,6.80
2019-03-13T03:57:00.002Z,6.90
2019-03-13T03:59:32.190Z,6.90
2019-03-13T04:02:02.608Z,6.70
2019-03-13T04:04:33.145Z,6.60
2019-03-13T04:07:05.752Z,6.70
2019-03-13T04:09:36.573Z,6.60
2019-03-13T04:12:10.102Z,6.50
2019-03-13T04:14:41.917Z,6.70
2019-03-13T04:17:12.179Z,6.70
2019-03-13T04:19:42.758Z,6.70
2019-03-13T04:22:14.314Z,6.60
2019-03-13T04:24:46.897Z,6.60
2019-03-13T04:27:17.279Z,6.60
2019-03-13T04:29:47.654Z,6.60
2019-03-13T04:32:18.938Z,6.70
2019-03-13T04:34:49.705Z,6.40
2019-03-13T04:37:20.645Z,6.50
2019-03-13T04:39:51.608Z,6.40
2019-03-13T04:42:23.706Z,6.30
2019-03-13T04:44:55.538Z,6.40
2019-03-13T04:47:25.902Z,6.70
2019-03-13T04:49:56.266Z,6.70
2019-03-13T04:52:26.775Z,6.70
2019-03-13T04:54:57.160Z,6.40
2019-03-13T04:57:27.942Z,6.40
2019-03-13T04:59:59.354Z,6.30
2019-03-13T05:02:30.906Z,6.40
2019-03-13T05:05:03.035Z,6.10
2019-03-13T05:07:36.161Z,6.30
2019-03-13T05:10:07.903Z,6.40
2019-03-13T05:12:38.464Z,6.10
2019-03-13T05:15:09.130Z,6.30
2019-03-13T05:17:39.448Z,6.20
2019-03-13T05:20:13.847Z,6.40
2019-03-13T05:22:47.940Z,6.20
2019-03-13T05:25:19.382Z,6.30
2019-03-13T05:27:49.907Z,6.30
2019-03-13T05:30:20.713Z,6.40
2019-03-13T05:32:51.446Z,6.30
2019-03-13T05:35:21.853Z,6.20
2019-03-13T05:37:52.423Z,6.10
2019-03-13T05:40:22.914Z,6.10
2019-03-13T05:42:53.770Z,6.00
2019-03-13T05:45:24.235Z,6.10
2019-03-13T05:47:54.938Z,6.20
2019-03-13T05:50:25.672Z,5.80
2019-03-13T05:52:56.395Z,6.00
2019-03-13T05:55:28.319Z,6.00
2019-03-13T05:57:59.166Z,6.00
2019-03-13T06:00:30.451Z,6.00
2019-03-13T06:03:01.977Z,5.90
2019-03-13T06:05:32.753Z,5.90
2019-03-13T06:08:05.406Z,6.00
2019-03-13T06:10:35.854Z,6.00
2019-03-13T06:13:06.582Z,5.80
2019-03-13T06:15:36.977Z,6.10
2019-03-13T06:18:09.804Z,6.20
2019-03-13T06:20:40.126Z,6.10
2019-03-13T06:23:11.165Z,6.00
2019-03-13T06:25:41.591Z,6.10
2019-03-13T06:28:12.034Z,6.20
2019-03-13T06:30:42.458Z,6.00
2019-03-13T06:33:13.229Z,6.10
2019-03-13T06:35:43.567Z,5.90
2019-03-13T06:38:14.121Z,5.90
2019-03-13T06:40:45.273Z,5.80
2019-03-13T06:43:16.156Z,6.00
2019-03-13T06:45:48.469Z,6.20
2019-03-13T06:48:18.894Z,6.20
2019-03-13T06:50:49.510Z,5.90
2019-03-13T06:53:21.634Z,6.00
2019-03-13T06:55:52.109Z,5.60
2019-03-13T06:58:33.367Z,5.70
2019-03-13T07:01:20.757Z,5.50
2019-03-13T07:04:25.562Z,5.70
2019-03-13T07:07:23.869Z,6.30
2019-03-13T07:10:00.598Z,7.60
2019-03-13T07:12:49.047Z,9.40
2019-03-13T07:15:45.884Z,10.80
2019-03-13T07:18:30.603Z,10.80
2019-03-13T07:21:28.988Z,10.10
2019-03-13T07:24:25.626Z,10.90
2019-03-13T07:27:01.198Z,12.20
2019-03-13T07:29:56.587Z,13.40
2019-03-13T07:32:44.867Z,14.60
2019-03-13T07:35:26.656Z,14.20
2019-03-13T07:38:22.243Z,14.00
2019-03-13T07:41:10.623Z,14.00
2019-03-13T07:43:58.908Z,13.50
2019-03-13T07:46:47.189Z,13.10
2019-03-13T07:49:27.611Z,11.70
2019-03-13T07:52:19.992Z,10.50
2019-03-13T07:55:09.257Z,10.70
2019-03-13T07:57:58.215Z,10.60
2019-03-13T08:00:48.169Z,10.30
2019-03-13T08:03:36.859Z,10.50
2019-03-13T08:06:26.437Z,11.10
2019-03-13T08:09:24.823Z,12.30
2019-03-13T08:12:13.209Z,13.50
2019-03-13T08:15:11.820Z,15.10
2019-03-13T08:17:57.836Z,15.90
2019-03-13T08:20:41.385Z,14.90
2019-03-13T08:23:34.237Z,13.40
2019-03-13T08:26:26.292Z,11.80
2019-03-13T08:29:28.383Z,11.10
2019-03-13T08:32:10.386Z,11.20
2019-03-13T08:35:04.265Z,11.40
2019-03-13T08:37:59.869Z,11.20
2019-03-13T08:40:49.320Z,10.30
2019-03-13T08:43:34.191Z,10.30
2019-03-13T08:46:14.491Z,9.70
2019-03-13T08:49:06.560Z,9.30
2019-03-13T08:51:59.328Z,9.10
2019-03-13T08:54:48.901Z,8.70
2019-03-13T08:57:48.941Z,9.00
2019-03-13T09:00:30.928Z,9.00
2019-03-13T09:03:26.198Z,8.90
2019-03-13T09:06:03.566Z,9.00
2019-03-13T09:09:03.025Z,8.90
2019-03-13T09:12:01.135Z,9.20
2019-03-13T09:14:50.502Z,9.90
2019-03-13T09:17:38.790Z,11.20
2019-03-13T09:20:31.180Z,11.80
2019-03-13T09:23:26.984Z,11.20
2019-03-13T09:26:14.882Z,10.20
2019-03-13T09:28:55.594Z,9.40
2019-03-13T09:31:48.462Z,9.50
2019-03-13T09:34:37.002Z,10.70
2019-03-13T09:37:29.458Z,12.00
2019-03-13T09:40:31.458Z,11.50
2019-03-13T09:43:23.904Z,11.20
2019-03-13T09:46:09.996Z,10.50
2019-03-13T09:48:50.868Z,10.00
2019-03-13T09:51:45.049Z,9.50
2019-03-13T09:54:38.348Z,9.30
2019-03-13T09:57:20.170Z,8.90
2019-03-13T10:00:16.369Z,8.80
2019-03-13T10:02:57.535Z,9.20
2019-03-13T10:06:05.338Z,9.30
2019-03-13T10:09:00.778Z,9.20
2019-03-13T10:11:55.229Z,8.90
2019-03-13T10:14:46.284Z,9.40
2019-03-13T10:17:35.882Z,10.00
2019-03-13T10:20:28.740Z,10.70
2019-03-13T10:23:17.655Z,11.20
2019-03-13T10:26:02.295Z,11.20
2019-03-13T10:28:51.935Z,10.80
2019-03-13T10:31:40.181Z,9.70
2019-03-13T10:34:43.435Z,9.60
2019-03-13T10:37:41.523Z,9.40
2019-03-13T10:40:31.135Z,9.60
2019-03-13T10:43:21.957Z,10.50
2019-03-13T10:46:17.405Z,11.90
2019-03-13T10:49:08.971Z,11.70
2019-03-13T10:51:48.005Z,12.20
2019-03-13T10:54:28.008Z,13.00
2019-03-13T10:57:29.435Z,13.70
2019-03-13T11:00:18.074Z,14.20
2019-03-13T11:02:55.727Z,14.40
2019-03-13T11:05:58.404Z,14.60
2019-03-13T11:08:42.598Z,14.20
2019-03-13T11:11:18.443Z,14.40
2019-03-13T11:14:23.501Z,15.60
2019-03-13T11:17:13.177Z,16.20
2019-03-13T11:20:21.393Z,16.70
2019-03-13T11:23:09.937Z,16.70
2019-03-13T11:25:59.850Z,17.20
2019-03-13T11:28:53.689Z,15.70
2019-03-13T11:31:57.301Z,15.40
2019-03-13T11:34:53.150Z,15.40
2019-03-13T11:37:40.650Z,13.90
2019-03-13T11:40:22.998Z,12.30
2019-03-13T11:43:11.448Z,11.70
2019-03-13T11:46:01.806Z,11.50
2019-03-13T11:48:43.725Z,11.40
2019-03-13T11:51:40.442Z,13.20
2019-03-13T11:54:29.385Z,13.10
2019-03-13T11:57:35.401Z,11.60
2019-03-13T12:00:41.629Z,12.10
2019-03-13T12:03:39.992Z,13.00
2019-03-13T12:06:28.580Z,14.70
2019-03-13T12:09:21.412Z,14.80
2019-03-13T12:12:10.447Z,13.30
2019-03-13T12:15:08.689Z,11.70
2019-03-13T12:17:55.299Z,11.30
2019-03-13T12:20:33.427Z,10.80
2019-03-13T12:23:14.797Z,11.10
2019-03-13T12:25:57.025Z,10.80
2019-03-13T12:28:45.097Z,10.80
2019-03-13T12:31:37.800Z,10.20
2019-03-13T12:34:17.530Z,11.10
2019-03-13T12:37:09.982Z,11.20
2019-03-13T12:40:12.512Z,11.10
2019-03-13T12:43:05.714Z,10.70
2019-03-13T12:46:01.256Z,10.20
2019-03-13T12:48:55.841Z,10.50
2019-03-13T12:51:58.194Z,10.20
2019-03-13T12:55:03.928Z,10.10
2019-03-13T12:57:56.082Z,10.00
2019-03-13T13:00:57.474Z,10.50
2019-03-13T13:03:42.962Z,10.30
2019-03-13T13:06:33.553Z,9.90
2019-03-13T13:09:28.688Z,9.50
2019-03-13T13:12:11.849Z,9.30
2019-03-13T13:14:57.944Z,9.70
2019-03-13T13:17:37.934Z,10.00
2019-03-13T13:20:10.734Z,10.40
2019-03-13T13:22:41.427Z,10.60
2019-03-13T13:25:13.413Z,10.10
2019-03-13T13:27:44.362Z,10.20
2019-03-13T13:30:16.010Z,10.10
2019-03-13T13:32:46.463Z,10.10
2019-03-13T13:35:16.913Z,10.00
2019-03-13T13:37:48.860Z,10.00
2019-03-13T13:40:19.298Z,9.80
2019-03-13T13:42:51.278Z,9.80
2019-03-13T13:45:54.233Z,9.60
2019-03-13T13:48:26.471Z,9.80
2019-03-13T13:50:57.122Z,10.00
2019-03-13T13:53:29.668Z,10.10
2019-03-13T13:56:00.100Z,10.60
2019-03-13T13:58:36.709Z,10.70
2019-03-13T14:01:07.377Z,10.60
2019-03-13T14:03:37.764Z,10.40
2019-03-13T14:06:08.563Z,10.20
2019-03-13T14:08:40.034Z,10.00
2019-03-13T14:11:12.237Z,10.30
2019-03-13T14:13:42.649Z,10.40
2019-03-13T14:16:13.556Z,10.50
2019-03-13T14:18:44.596Z,10.40
2019-03-13T14:21:15.025Z,10.70
2019-03-13T14:23:46.575Z,10.60
2019-03-13T14:26:17.435Z,10.50
2019-03-13T14:28:47.898Z,10.30
2019-03-13T14:31:18.341Z,10.60
2019-03-13T14:33:50.522Z,10.40
2019-03-13T14:36:22.366Z,10.50
2019-03-13T14:38:53.954Z,10.40
2019-03-13T14:41:26.516Z,10.30
2019-03-13T14:43:58.218Z,10.10
2019-03-13T14:46:28.695Z,9.80
2019-03-13T14:48:59.125Z,10.00
2019-03-13T14:51:32.777Z,10.10
2019-03-13T14:54:05.222Z,9.70
2019-03-13T14:56:35.984Z,9.70
2019-03-13T14:59:06.384Z,9.40
2019-03-13T15:01:38.449Z,9.70
2019-03-13T15:04:10.223Z,9.60
2019-03-13T15:06:41.199Z,9.70
2019-03-13T15:09:11.626Z,9.80
2019-03-13T15:11:44.065Z,9.90
2019-03-13T15:14:15.496Z,10.00
2019-03-13T15:16:46.331Z,9.60
2019-03-13T15:19:16.545Z,9.30
2019-03-13T15:21:47.374Z,9.30
2019-03-13T15:24:18.871Z,9.40
2019-03-13T15:26:49.270Z,9.30
2019-03-13T15:29:20.416Z,8.90
2019-03-13T15:31:53.618Z,8.80
2019-03-13T15:34:24.644Z,9.10
2019-03-13T15:36:56.075Z,8.90
2019-03-13T15:39:27.866Z,9.00
2019-03-13T15:42:00.044Z,9.00
2019-03-13T15:44:32.504Z,8.60
2019-03-13T15:47:02.907Z,8.80
2019-03-13T15:49:33.408Z,8.60
2019-03-13T15:52:04.495Z,8.30
2019-03-13T15:54:35.312Z,8.20
2019-03-13T15:57:06.640Z,8.00
2019-03-13T15:59:38.789Z,7.70
2019-03-13T16:02:09.806Z,7.60
2019-03-13T16:04:40.688Z,7.30
2019-03-13T16:07:13.014Z,7.40
2019-03-13T16:09:43.732Z,7.60
2019-03-13T16:12:14.488Z,7.60
2019-03-13T16:14:44.874Z,7.40
2019-03-13T16:17:15.613Z,7.30
2019-03-13T16:19:46.695Z,7.40
2019-03-13T16:22:18.349Z,7.30
2019-03-13T16:24:48.725Z,7.30
2019-03-13T16:27:19.930Z,7.30
2019-03-13T16:29:50.960Z,7.00
2019-03-13T16:32:22.374Z,7.30
2019-03-13T16:34:53.129Z,7.30
2019-03-13T16:37:23.508Z,7.20
2019-03-13T16:39:55.365Z,7.30
2019-03-13T16:42:25.848Z,7.60
2019-03-13T16:44:56.492Z,7.00
2019-03-13T16:47:26.853Z,6.80
2019-03-13T16:49:57.216Z,7.00
2019-03-13T16:52:29.131Z,6.70
2019-03-13T16:54:59.839Z,6.60
2019-03-13T16:57:30.282Z,6.60
2019-03-13T17:00:01.512Z,6.50
2019-03-13T17:02:33.663Z,6.50
2019-03-13T17:05:04.201Z,6.60
2019-03-13T17:07:35.870Z,6.40
2019-03-13T17:10:06.820Z,6.40
2019-03-13T17:12:37.586Z,6.30
2019-03-13T17:15:11.010Z,6.30
2019-03-13T17:17:41.559Z,6.20
2019-03-13T17:20:15.237Z,6.30
2019-03-13T17:22:46.206Z,6.20
2019-03-13T17:25:17.610Z,6.30
2019-03-13T17:27:48.426Z,6.20
2019-03-13T17:30:21.020Z,6.10
2019-03-13T17:32:51.427Z,6.00
2019-03-13T17:35:23.382Z,5.90
2019-03-13T17:37:55.234Z,6.10
2019-03-13T17:40:25.625Z,6.10
2019-03-13T17:42:56.611Z,6.10
2019-03-13T17:45:26.990Z,6.00
2019-03-13T17:47:57.472Z,6.10
2019-03-13T17:50:27.845Z,6.00
2019-03-13T17:53:02.316Z,6.00
2019-03-13T17:55:33.261Z,6.20
2019-03-13T17:58:04.341Z,6.10
2019-03-13T18:00:41.373Z,6.00
2019-03-13T18:03:11.682Z,5.90
2019-03-13T18:05:42.179Z,6.00
2019-03-13T18:08:12.629Z,5.80
2019-03-13T18:10:45.228Z,5.70
2019-03-13T18:13:16.346Z,5.70
2019-03-13T18:15:48.133Z,5.60
2019-03-13T18:18:18.525Z,5.60
2019-03-13T18:20:48.954Z,5.80
2019-03-13T18:23:19.409Z,5.70
2019-03-13T18:25:50.150Z,5.50
2019-03-13T18:28:20.505Z,5.80
2019-03-13T18:30:51.318Z,5.50
2019-03-13T18:33:22.998Z,5.80
2019-03-13T18:35:55.065Z,5.60
2019-03-13T18:38:25.791Z,5.80
2019-03-13T18:40:56.738Z,6.00
2019-03-13T18:43:27.554Z,5.90
2019-03-13T18:45:58.177Z,6.10
2019-03-13T18:48:28.901Z,5.80
2019-03-13T18:51:01.189Z,5.80
2019-03-13T18:53:31.923Z,6.00
2019-03-13T18:56:03.480Z,5.70
2019-03-13T18:58:35.606Z,6.00
2019-03-13T19:01:06.262Z,5.70
2019-03-13T19:03:37.028Z,6.00
2019-03-13T19:06:09.212Z,5.90
2019-03-13T19:08:40.019Z,5.80
2019-03-13T19:11:10.396Z,6.10
2019-03-13T19:13:42.302Z,6.00
2019-03-13T19:16:14.081Z,6.00
2019-03-13T19:18:45.922Z,5.80
2019-03-13T19:21:19.329Z,5.80
2019-03-13T19:23:49.717Z,5.80
2019-03-13T19:26:20.680Z,5.80
2019-03-13T19:28:51.468Z,5.70
2019-03-13T19:31:22.267Z,5.80
2019-03-13T19:33:53.764Z,5.70
2019-03-13T19:36:24.318Z,5.70
2019-03-13T19:38:56.622Z,5.60
2019-03-13T19:41:27.310Z,5.70
2019-03-13T19:43:57.852Z,5.80
2019-03-13T19:46:28.558Z,5.70
2019-03-13T19:48:58.919Z,5.80
2019-03-13T19:51:29.593Z,5.80
2019-03-13T19:53:59.925Z,5.80
2019-03-13T19:56:35.050Z,5.60
2019-03-13T19:59:04.534Z,6.00
2019-03-13T20:01:35.948Z,6.00
2019-03-13T20:04:06.395Z,6.00
2019-03-13T20:06:42.279Z,6.00
2019-03-13T20:09:09.702Z,6.00
2019-03-13T20:11:41.361Z,5.90
2019-03-13T20:14:12.137Z,6.10
2019-03-13T20:16:42.910Z,6.00
2019-03-13T20:19:15.173Z,6.10
2019-03-13T20:21:46.839Z,6.10
2019-03-13T20:24:19.582Z,6.30
2019-03-13T20:26:50.977Z,6.10
2019-03-13T20:29:25.471Z,6.10
2019-03-13T20:31:55.878Z,6.00
2019-03-13T20:34:26.805Z,6.10
2019-03-13T20:36:58.718Z,6.10
2019-03-13T20:39:29.711Z,6.10
2019-03-13T20:42:00.143Z,6.00
2019-03-13T20:44:31.986Z,6.10
2019-03-13T20:47:02.394Z,6.00
2019-03-13T20:49:33.807Z,6.10
2019-03-13T20:52:04.503Z,6.10
2019-03-13T20:54:35.437Z,5.80
2019-03-13T20:57:07.260Z,5.70
2019-03-13T20:59:38.562Z,5.60
2019-03-13T21:02:09.090Z,5.80
2019-03-13T21:04:40.245Z,5.60
2019-03-13T21:07:11.297Z,5.50
2019-03-13T21:09:42.370Z,5.50
2019-03-13T21:12:12.909Z,5.20
2019-03-13T21:14:45.230Z,5.40
2019-03-13T21:17:15.850Z,5.40
2019-03-13T21:19:47.608Z,5.10
2019-03-13T21:22:18.454Z,5.40
2019-03-13T21:24:49.669Z,5.10
2019-03-13T21:27:20.550Z,5.40
2019-03-13T21:29:53.840Z,5.10
2019-03-13T21:32:24.393Z,5.40
2019-03-13T21:34:55.740Z,5.50
2019-03-13T21:37:26.658Z,5.50
2019-03-13T21:39:57.494Z,5.50
2019-03-13T21:42:29.545Z,5.20
2019-03-13T21:45:00.498Z,5.40
2019-03-13T21:47:31.156Z,5.50
2019-03-13T21:50:03.155Z,5.50
2019-03-13T21:52:34.279Z,5.20
2019-03-13T21:55:05.015Z,5.40
2019-03-13T21:57:36.889Z,5.40
2019-03-13T22:00:10.018Z,5.40
2019-03-13T22:02:42.142Z,5.40
2019-03-13T22:05:24.675Z,5.50
2019-03-13T22:07:45.087Z,5.40
2019-03-13T22:10:16.317Z,5.20
2019-03-13T22:12:46.865Z,5.10
2019-03-13T22:15:18.500Z,5.00
2019-03-13T22:17:48.887Z,5.00
2019-03-13T22:20:19.943Z,5.10
2019-03-13T22:22:50.754Z,5.20
2019-03-13T22:25:21.249Z,4.90
2019-03-13T22:27:51.840Z,5.20
2019-03-13T22:30:22.644Z,4.90
2019-03-13T22:32:53.959Z,5.00
2019-03-13T22:35:26.254Z,4.90
2019-03-13T22:37:58.465Z,4.90
2019-03-13T22:40:30.840Z,5.10
2019-03-13T22:43:02.907Z,4.90
2019-03-13T22:45:33.393Z,5.20
2019-03-13T22:48:07.162Z,5.00
2019-03-13T22:50:38.572Z,4.80
2019-03-13T22:53:09.901Z,5.10
2019-03-13T22:55:41.142Z,5.00
2019-03-13T22:58:11.651Z,5.20
2019-03-13T23:01:04.679Z,5.00
2019-03-13T23:03:40.535Z,4.80
2019-03-13T23:06:11.326Z,5.10
2019-03-13T23:08:42.479Z,5.00
2019-03-13T23:11:13.921Z,4.90
2019-03-13T23:13:45.952Z,5.10
2019-03-13T23:16:16.684Z,5.10
2019-03-13T23:18:47.448Z,4.90
2019-03-13T23:21:18.165Z,4.90
2019-03-13T23:23:48.479Z,5.20
2019-03-13T23:26:18.901Z,5.30
2019-03-13T23:28:49.669Z,5.00
2019-03-13T23:31:20.314Z,5.40
2019-03-13T23:33:50.925Z,5.30
2019-03-13T23:36:21.284Z,5.30
2019-03-13T23:38:52.612Z,4.90
2019-03-13T23:41:23.467Z,5.20
2019-03-13T23:43:54.397Z,4.90
2019-03-13T23:46:24.768Z,4.80
2019-03-13T23:48:55.551Z,4.80
2019-03-13T23:51:26.464Z,4.60
2019-03-13T23:53:56.882Z,4.60
2019-03-13T23:56:27.659Z,4.70
2019-03-13T23:59:00.951Z,4.70
